Archival Weather

Snohomish County (Paine Fld)

Everett, Washington (KPAE)

Report from: Thursday, November 16, 2023 5:53 PM PST
Current time: Sunday, June 16, 2024 11:44 PM PDT

Current weather – Weather history – Daily summaries
Weather forecast

Temperature4.4°C (39.9°F)
Wind chill3.2°C (37.8°F)
Dew point1.1°C (34.0°F)
Winds 3 kts (1.5 m/s, 3.5 mph) North-Northwest (340°)
Visibility10 mi. (16.1 km)
Clouds Sky clear
Altimeter30.13 in.Hg (1020 mB)
Relative humidity79 %
Density altitude-1,443 ft. (-440 m)
Sea-level pressure102.1 kPa (1021 mB, 30.15 in.Hg)
Remarks Automated weather observing station with precipitation discriminator
Flight conditions Visual Meteorological Conditions
Raw dataKPAE 170153Z 34003KT 10SM CLR 04/01 A3013 RMK AO2 SLP209 T00440011
An error has occurred. This application may no longer respond until reloaded. Reload 🗙